Time;durP1;ratioP1;P1;durP2;ratioP2;P2;SDS_P1;SDS_P2;PMS_P1;PMS_P2;Temp;Humidity;BMP_temperature;BMP_pressure;BME280_temperature;BME280_humidity;BME280_pressure;Samples;Min_cycle;Max_cycle;Signal;HPM_P1;HPM_P2
2021/11/17 11:13:13;;;;;;;0.50;0.50;;;5.00;99.90;;;;;;5108030;27;20832;-78
2021/11/17 11:15:45;;;;;;;0.60;0.50;;;5.00;99.90;;;;;;5086121;28;20532;-77
2021/11/17 11:18:10;;;;;;;0.52;0.52;;;5.00;99.90;;;;;;5086272;28;20094;-76
2021/11/17 11:20:46;;;;;;;0.70;0.70;;;5.00;99.90;;;;;;5086766;28;20024;-75
2021/11/17 11:23:15;;;;;;;;;;;5.00;99.90;;;;;;5061773;28;20440;-78
2021/11/17 11:26:00;;;;;;;0.60;0.60;;;5.00;99.90;;;;;;5086376;28;19908;-78
2021/11/17 11:28:31;;;;;;;0.70;0.68;;;5.10;99.90;;;;;;5086267;28;20033;-77
2021/11/17 11:31:12;;;;;;;0.60;0.60;;;5.20;99.90;;;;;;5099147;28;20032;-75
2021/11/17 11:34:12;;;;;;;0.82;0.60;;;5.20;99.90;;;;;;5086772;28;20635;-77
2021/11/17 11:36:48;;;;;;;0.60;0.60;;;5.20;99.90;;;;;;5084563;28;20024;-77
2021/11/17 11:39:14;;;;;;;0.70;0.43;;;5.30;99.90;;;;;;5086432;28;20024;-77
2021/11/17 11:42:03;;;;;;;0.70;0.60;;;5.30;99.90;;;;;;5085699;28;20452;-76
2021/11/17 11:44:42;;;;;;;0.70;0.65;;;5.20;99.90;;;;;;5076451;28;20033;-76
2021/11/17 11:47:08;;;;;;;0.45;0.45;;;5.20;99.90;;;;;;5084906;28;20055;-78
2021/11/17 11:49:36;;;;;;;0.45;0.40;;;5.20;99.90;;;;;;5085514;28;20509;-78
2021/11/17 11:52:26;;;;;;;0.47;0.45;;;5.20;99.90;;;;;;5088025;28;20063;-79
2021/11/17 11:54:51;;;;;;;0.65;0.47;;;5.20;99.90;;;;;;5085191;28;20028;-76
2021/11/17 11:57:35;;;;;;;0.50;0.43;;;5.20;99.90;;;;;;5085008;28;20027;-76
2021/11/17 12:00:10;;;;;;;0.50;0.50;;;5.20;99.90;;;;;;5079381;28;20024;-76
2021/11/17 12:02:40;;;;;;;0.40;0.40;;;5.10;99.90;;;;;;5086679;28;20032;-76
2021/11/17 12:05:11;;;;;;;0.57;0.57;;;5.10;99.90;;;;;;5064693;28;20513;-76
2021/11/17 12:07:43;;;;;;;0.50;0.50;;;5.10;99.90;;;;;;5086530;28;20047;-77
2021/11/17 12:10:31;;;;;;;0.50;0.40;;;5.10;99.90;;;;;;5084336;28;20032;-79
2021/11/17 12:13:19;;;;;;;0.70;0.50;;;5.10;99.90;;;;;;5079807;28;20036;-76
2021/11/17 12:16:19;;;;;;;0.43;0.40;;;5.20;99.90;;;;;;5077644;28;20012;-77
2021/11/17 12:18:48;;;;;;;0.80;0.60;;;5.20;99.90;;;;;;5076434;28;20025;-77
2021/11/17 12:21:18;;;;;;;0.40;0.40;;;5.20;99.90;;;;;;5084221;28;20455;-75
2021/11/17 12:23:58;;;;;;;0.43;0.43;;;5.20;99.90;;;;;;5072963;28;20038;-78
2021/11/17 12:26:24;;;;;;;0.57;0.57;;;5.20;99.90;;;;;;5068986;28;20962;-76
2021/11/17 12:29:12;;;;;;;0.82;0.60;;;5.20;99.90;;;;;;5069595;28;20040;-77
2021/11/17 12:31:55;;;;;;;0.40;0.40;;;5.20;99.90;;;;;;5069420;28;20060;-76
2021/11/17 12:34:37;;;;;;;0.35;0.35;;;5.30;99.90;;;;;;5065859;28;20701;-77
2021/11/17 12:37:29;;;;;;;1.20;0.43;;;5.20;99.90;;;;;;5068159;28;20035;-76
2021/11/17 12:40:06;;;;;;;0.40;0.40;;;5.30;99.90;;;;;;5060222;28;20032;-76
2021/11/17 12:42:34;;;;;;;0.65;0.65;;;5.20;99.90;;;;;;5066216;28;20056;-78
2021/11/17 12:45:13;;;;;;;0.90;0.40;;;5.20;99.90;;;;;;5065487;28;20461;-76
2021/11/17 12:47:49;;;;;;;0.60;0.40;;;5.30;99.90;;;;;;5062897;28;20028;-76
2021/11/17 12:50:36;;;;;;;0.65;0.65;;;5.30;99.90;;;;;;5062065;28;20431;-76
2021/11/17 12:53:08;;;;;;;0.98;0.40;;;5.30;99.90;;;;;;5063985;28;20033;-76
2021/11/17 12:55:46;;;;;;;0.65;0.45;;;5.30;99.90;;;;;;5063130;28;20078;-77
2021/11/17 12:58:35;;;;;;;0.40;0.35;;;5.30;99.90;;;;;;5064934;28;20035;-77
2021/11/17 13:01:10;;;;;;;0.77;0.45;;;5.30;99.90;;;;;;5059288;28;20459;-75
2021/11/17 13:03:57;;;;;;;0.47;0.40;;;5.30;99.90;;;;;;5050216;28;20111;-78
2021/11/17 13:06:28;;;;;;;0.50;0.50;;;5.30;99.90;;;;;;5065895;28;20128;-78
2021/11/17 13:09:30;;;;;;;0.47;0.47;;;5.30;99.90;;;;;;5065028;28;20024;-75
2021/11/17 13:12:11;;;;;;;0.50;0.47;;;5.30;99.90;;;;;;5067398;28;20123;-78
2021/11/17 13:14:43;;;;;;;0.40;0.40;;;5.30;99.90;;;;;;5063371;28;20032;-75
2021/11/17 13:17:55;;;;;;;0.43;0.40;;;5.30;99.90;;;;;;5070112;28;20028;-78
2021/11/17 13:20:36;;;;;;;0.30;0.30;;;5.30;99.90;;;;;;5060872;28;20032;-77
2021/11/17 13:23:07;;;;;;;0.55;0.52;;;5.30;99.90;;;;;;5057414;28;20033;-75
2021/11/17 13:25:54;;;;;;;0.50;0.35;;;5.30;99.90;;;;;;5079265;28;20063;-77
2021/11/17 13:28:42;;;;;;;0.60;0.52;;;5.30;99.90;;;;;;5044597;28;20123;-74
2021/11/17 13:31:26;;;;;;;0.65;0.45;;;5.30;99.90;;;;;;5059213;28;20057;-75
2021/11/17 13:34:05;;;;;;;0.30;0.30;;;5.30;99.90;;;;;;5068370;28;20087;-77
2021/11/17 13:36:47;;;;;;;0.68;0.68;;;5.30;99.90;;;;;;5061873;28;20032;-77
2021/11/17 13:39:16;;;;;;;0.95;0.70;;;5.30;99.90;;;;;;5061672;28;20530;-77
2021/11/17 13:41:45;;;;;;;0.80;0.70;;;5.30;99.90;;;;;;5071034;28;20047;-78
2021/11/17 13:44:13;;;;;;;0.68;0.60;;;5.30;99.90;;;;;;5061473;28;20039;-76
2021/11/17 13:46:51;;;;;;;0.80;0.63;;;5.30;99.90;;;;;;5047142;28;20082;-77
2021/11/17 13:49:17;;;;;;;0.47;0.47;;;5.20;99.90;;;;;;5064177;28;20040;-77
2021/11/17 13:51:43;;;;;;;0.63;0.52;;;5.20;99.90;;;;;;5043641;28;20048;-78
2021/11/17 13:54:09;;;;;;;0.47;0.45;;;5.20;99.90;;;;;;5059257;28;20068;-76
2021/11/17 13:56:38;;;;;;;0.70;0.70;;;5.20;99.90;;;;;;5047244;28;20069;-75
2021/11/17 13:59:04;;;;;;;0.68;0.65;;;5.20;99.90;;;;;;5061908;28;20024;-77
2021/11/17 14:01:30;;;;;;;0.60;0.60;;;5.20;99.90;;;;;;5061015;28;20056;-77
2021/11/17 14:03:56;;;;;;;0.60;0.60;;;5.20;99.90;;;;;;5064565;28;20096;-78
2021/11/17 14:06:22;;;;;;;0.55;0.47;;;5.20;99.90;;;;;;5062090;28;20024;-78
2021/11/17 14:08:49;;;;;;;0.55;0.52;;;5.30;99.90;;;;;;5064731;28;20047;-76
2021/11/17 14:11:15;;;;;;;0.45;0.45;;;5.20;99.90;;;;;;5057925;28;21539;-78
2021/11/17 14:13:42;;;;;;;0.63;0.60;;;5.20;99.90;;;;;;5046654;28;20111;-77
2021/11/17 14:16:08;;;;;;;1.20;0.52;;;5.20;99.90;;;;;;5062663;28;20080;-74
2021/11/17 14:18:34;;;;;;;0.40;0.40;;;5.20;99.90;;;;;;5056346;28;20605;-79
2021/11/17 14:21:02;;;;;;;0.60;0.60;;;5.20;99.90;;;;;;5041738;28;20068;-77
2021/11/17 14:23:28;;;;;;;1.60;0.70;;;5.20;99.90;;;;;;5058816;28;20079;-76
2021/11/17 14:25:54;;;;;;;0.40;0.40;;;5.20;99.90;;;;;;5058073;28;20029;-77
2021/11/17 14:28:23;;;;;;;0.43;0.40;;;5.20;99.90;;;;;;5064574;28;20039;-77
2021/11/17 14:30:51;;;;;;;0.40;0.30;;;5.10;99.90;;;;;;5061264;28;20028;-77
2021/11/17 14:33:25;;;;;;;0.40;0.40;;;5.10;99.90;;;;;;5065399;28;20077;-77
2021/11/17 14:35:52;;;;;;;0.75;0.40;;;5.10;99.90;;;;;;5064681;28;20032;-78
2021/11/17 14:38:20;;;;;;;0.30;0.30;;;5.10;99.90;;;;;;5063994;28;20020;-75
2021/11/17 14:40:48;;;;;;;0.40;0.32;;;5.10;99.90;;;;;;5060890;28;20036;-77
2021/11/17 14:43:17;;;;;;;0.50;0.40;;;5.10;99.90;;;;;;5065664;28;20028;-76
2021/11/17 14:45:44;;;;;;;0.70;0.50;;;5.10;99.90;;;;;;5060702;28;20033;-78
2021/11/17 14:48:09;;;;;;;0.60;0.60;;;5.10;99.90;;;;;;5063425;28;20048;-76
2021/11/17 14:50:35;;;;;;;0.57;0.57;;;5.10;99.90;;;;;;5065659;28;20032;-79
2021/11/17 14:53:01;;;;;;;2.47;0.50;;;5.10;99.90;;;;;;5067567;28;20064;-78
2021/11/17 14:55:28;;;;;;;0.60;0.60;;;5.10;99.90;;;;;;5041015;28;20127;-78
2021/11/17 14:57:54;;;;;;;0.50;0.50;;;5.00;99.90;;;;;;5058765;28;20025;-78
2021/11/17 15:00:25;;;;;;;2.22;0.65;;;5.00;99.90;;;;;;5051455;28;20415;-75
2021/11/17 15:02:54;;;;;;;0.65;0.40;;;5.00;99.90;;;;;;5061607;28;20125;-77
2021/11/17 15:05:20;;;;;;;0.40;0.40;;;5.00;99.90;;;;;;5056646;28;20513;-77
2021/11/17 15:07:46;;;;;;;0.65;0.63;;;5.00;99.90;;;;;;5060297;28;20127;-74
2021/11/17 15:10:14;;;;;;;0.40;0.40;;;5.00;99.90;;;;;;5061021;28;20502;-77
2021/11/17 15:12:40;;;;;;;2.15;0.50;;;5.00;99.90;;;;;;5062760;28;20037;-77
2021/11/17 15:15:11;;;;;;;0.50;0.40;;;5.00;99.90;;;;;;5044535;28;20029;-76
2021/11/17 15:17:38;;;;;;;0.63;0.50;;;5.00;99.90;;;;;;5059112;28;20025;-77
2021/11/17 15:20:06;;;;;;;0.80;0.47;;;5.00;99.90;;;;;;5059978;28;20166;-77
2021/11/17 15:22:32;;;;;;;0.40;0.35;;;5.00;99.90;;;;;;5065901;28;20117;-76
2021/11/17 15:24:58;;;;;;;0.32;0.20;;;5.00;99.90;;;;;;5045227;28;20089;-76
2021/11/17 15:27:26;;;;;;;0.30;0.30;;;4.90;99.90;;;;;;5057044;28;20028;-75
2021/11/17 15:29:53;;;;;;;0.32;0.30;;;4.90;99.90;;;;;;5044488;28;20044;-76
2021/11/17 15:32:20;;;;;;;0.40;0.40;;;4.90;99.90;;;;;;5061236;28;20767;-77
2021/11/17 15:34:46;;;;;;;0.40;0.30;;;4.90;99.90;;;;;;5059535;28;20435;-76
2021/11/17 15:37:13;;;;;;;0.40;0.40;;;4.90;99.90;;;;;;5029424;28;20029;-76
2021/11/17 15:39:39;;;;;;;0.40;0.20;;;4.90;99.90;;;;;;5074985;28;20090;-78
2021/11/17 15:42:06;;;;;;;0.52;0.52;;;4.90;99.90;;;;;;5055176;28;20037;-77
2021/11/17 15:44:31;;;;;;;0.30;0.30;;;4.90;99.90;;;;;;5060577;28;20025;-77
2021/11/17 15:47:03;;;;;;;0.25;0.25;;;4.90;99.90;;;;;;5056570;28;20575;-77
2021/11/17 15:49:29;;;;;;;0.32;0.30;;;4.90;99.90;;;;;;5063603;28;20062;-77
2021/11/17 15:51:57;;;;;;;0.32;0.30;;;4.80;99.90;;;;;;5061613;28;20128;-78
2021/11/17 15:54:23;;;;;;;0.50;0.30;;;4.90;99.90;;;;;;5043508;28;20029;-77
2021/11/17 15:56:50;;;;;;;0.40;0.40;;;4.90;99.90;;;;;;5030287;28;20055;-77
2021/11/17 15:59:16;;;;;;;0.50;0.40;;;4.90;99.90;;;;;;5063795;28;20047;-77
2021/11/17 16:01:47;;;;;;;0.40;0.40;;;4.80;99.90;;;;;;5061844;28;20036;-77
2021/11/17 16:04:14;;;;;;;0.68;0.52;;;4.80;99.90;;;;;;5067490;28;20059;-77
2021/11/17 16:07:11;;;;;;;0.20;0.20;;;4.80;99.90;;;;;;5065099;28;20486;-78
2021/11/17 16:09:40;;;;;;;1.02;0.50;;;4.80;99.90;;;;;;5061100;28;20040;-78
2021/11/17 16:12:07;;;;;;;0.70;0.70;;;4.80;99.90;;;;;;5061756;28;20024;-78
2021/11/17 16:14:33;;;;;;;0.60;0.60;;;4.70;99.90;;;;;;5066684;28;20116;-77
2021/11/17 16:16:59;;;;;;;1.42;0.75;;;4.70;99.90;;;;;;5066595;28;20467;-78
2021/11/17 16:19:28;;;;;;;0.60;0.60;;;4.70;99.90;;;;;;5067008;28;20055;-77
2021/11/17 16:21:55;;;;;;;0.88;0.55;;;4.70;99.90;;;;;;5070063;28;20043;-77
2021/11/17 16:27:11;;;;;;;0.77;0.70;;;4.70;99.90;;;;;;5062553;28;20143;-77
2021/11/17 16:29:43;;;;;;;0.52;0.52;;;4.70;99.90;;;;;;5063396;28;20075;-77
2021/11/17 16:32:09;;;;;;;0.68;0.60;;;4.70;99.90;;;;;;5063549;28;20474;-77
2021/11/17 16:34:35;;;;;;;0.47;0.47;;;4.70;99.90;;;;;;5061902;28;20036;-77
2021/11/17 16:37:00;;;;;;;0.95;0.88;;;4.70;99.90;;;;;;5063193;28;20036;-78
2021/11/17 16:39:26;;;;;;;0.70;0.70;;;4.70;99.90;;;;;;5065859;28;20544;-78
2021/11/17 16:41:52;;;;;;;2.17;0.90;;;4.80;99.90;;;;;;5058924;28;20044;-77
2021/11/17 16:44:19;;;;;;;0.73;0.70;;;4.70;99.90;;;;;;5061334;28;20127;-77
2021/11/17 16:46:45;;;;;;;0.88;0.88;;;4.70;99.90;;;;;;5060729;28;20426;-77
2021/11/17 16:49:14;;;;;;;0.80;0.80;;;4.70;99.90;;;;;;5057064;28;20036;-77
2021/11/17 16:52:00;;;;;;;0.80;0.80;;;4.70;99.90;;;;;;5034646;28;20060;-78
2021/11/17 16:54:26;;;;;;;0.95;0.70;;;4.70;99.90;;;;;;5065593;28;20081;-77
2021/11/17 16:56:52;;;;;;;1.17;1.05;;;4.70;99.90;;;;;;5042878;28;20119;-77
2021/11/17 16:59:17;;;;;;;0.80;0.80;;;4.70;99.90;;;;;;5069985;28;20037;-77
2021/11/17 17:01:43;;;;;;;1.13;1.05;;;4.70;99.90;;;;;;5066816;28;20040;-78
2021/11/17 17:04:08;;;;;;;0.80;0.80;;;4.70;99.90;;;;;;5067046;28;20043;-77
2021/11/17 17:06:36;;;;;;;0.80;0.75;;;4.70;99.90;;;;;;5067114;28;20033;-76
2021/11/17 17:09:02;;;;;;;1.00;1.00;;;4.70;99.90;;;;;;5068241;28;20044;-77
2021/11/17 17:11:28;;;;;;;1.05;0.95;;;4.70;99.90;;;;;;5068254;28;20040;-76
2021/11/17 17:13:54;;;;;;;1.00;0.90;;;4.70;99.90;;;;;;5066589;28;20055;-76
2021/11/17 17:16:20;;;;;;;1.10;1.00;;;4.70;99.90;;;;;;5064712;28;20471;-77
2021/11/17 17:18:46;;;;;;;1.50;1.30;;;4.70;99.90;;;;;;5062366;28;20664;-78
2021/11/17 17:21:13;;;;;;;1.20;1.00;;;4.70;99.90;;;;;;5043362;28;20063;-78
2021/11/17 17:23:42;;;;;;;0.90;0.90;;;4.70;99.90;;;;;;5062178;28;20112;-77
2021/11/17 17:26:13;;;;;;;1.20;1.02;;;4.70;99.90;;;;;;5064397;28;20020;-77
2021/11/17 17:28:40;;;;;;;1.08;0.90;;;4.70;99.90;;;;;;5059918;28;20040;-77
2021/11/17 17:31:08;;;;;;;1.10;1.00;;;4.70;99.90;;;;;;5060792;28;20095;-78
2021/11/17 17:33:35;;;;;;;1.05;1.00;;;4.70;99.90;;;;;;5063211;28;20021;-77
2021/11/17 17:36:02;;;;;;;0.90;0.90;;;4.70;99.90;;;;;;5063751;28;20087;-76
2021/11/17 17:38:27;;;;;;;1.65;1.00;;;4.70;99.90;;;;;;5064777;28;20025;-78
2021/11/17 17:40:55;;;;;;;0.90;0.90;;;4.70;99.90;;;;;;5057913;28;20043;-76
2021/11/17 17:43:22;;;;;;;0.93;0.88;;;4.70;99.90;;;;;;5063637;28;20435;-79
2021/11/17 17:45:49;;;;;;;1.20;0.98;;;4.70;99.90;;;;;;5063381;28;20048;-78
2021/11/17 17:48:15;;;;;;;0.63;0.63;;;4.70;99.90;;;;;;5061100;28;20028;-76
2021/11/17 17:50:42;;;;;;;1.13;1.02;;;4.70;99.90;;;;;;5061955;28;20032;-78
2021/11/17 17:53:11;;;;;;;1.05;0.95;;;4.70;99.90;;;;;;5061314;28;20055;-78
2021/11/17 17:55:37;;;;;;;1.20;1.10;;;4.70;99.90;;;;;;5060797;28;20025;-77
2021/11/17 17:58:04;;;;;;;1.38;1.10;;;4.70;99.90;;;;;;5065665;28;20040;-78
2021/11/17 18:00:31;;;;;;;1.00;0.93;;;4.70;99.90;;;;;;5063741;28;20024;-77
2021/11/17 18:02:56;;;;;;;1.17;1.08;;;4.70;99.90;;;;;;5066377;28;20498;-77
2021/11/17 18:05:23;;;;;;;1.40;1.30;;;4.70;99.90;;;;;;5045561;28;20043;-76
2021/11/17 18:07:50;;;;;;;1.83;1.27;;;4.70;99.90;;;;;;5064748;28;20045;-77
2021/11/17 18:10:18;;;;;;;1.92;1.70;;;4.70;99.90;;;;;;5070292;28;20546;-77
2021/11/17 18:12:44;;;;;;;1.65;1.55;;;4.70;99.90;;;;;;5070271;28;20081;-77
2021/11/17 18:15:11;;;;;;;1.48;1.35;;;4.80;99.90;;;;;;5064559;28;20029;-77
2021/11/17 18:17:37;;;;;;;1.52;1.42;;;4.80;99.90;;;;;;5065268;28;20020;-76
2021/11/17 18:20:08;;;;;;;1.65;1.48;;;4.70;99.90;;;;;;5061177;28;20444;-78
2021/11/17 18:22:34;;;;;;;3.05;1.75;;;4.70;99.90;;;;;;5065846;28;20048;-76
2021/11/17 18:25:01;;;;;;;1.90;1.80;;;4.70;99.90;;;;;;5059218;28;20478;-76
2021/11/17 18:27:26;;;;;;;1.40;1.30;;;4.70;99.90;;;;;;5064701;28;20037;-77
2021/11/17 18:29:52;;;;;;;1.33;1.10;;;4.70;99.90;;;;;;5063264;28;20028;-77
2021/11/17 18:32:22;;;;;;;1.33;1.23;;;4.70;99.90;;;;;;5046563;28;20490;-77
2021/11/17 18:34:50;;;;;;;1.38;1.27;;;4.70;99.90;;;;;;5061169;28;20028;-77
2021/11/17 18:37:15;;;;;;;2.60;1.50;;;4.70;99.90;;;;;;5062197;28;20059;-77
2021/11/17 18:39:41;;;;;;;1.33;1.23;;;4.70;99.90;;;;;;5062781;28;20086;-76
2021/11/17 18:42:17;;;;;;;1.48;1.23;;;4.70;99.90;;;;;;5061557;28;20054;-76
2021/11/17 18:44:44;;;;;;;1.50;1.40;;;4.70;99.90;;;;;;5078005;28;20033;-76
2021/11/17 18:47:10;;;;;;;1.50;1.40;;;4.70;99.90;;;;;;5065137;28;20063;-78
2021/11/17 18:49:36;;;;;;;1.90;1.38;;;4.70;99.90;;;;;;5060832;28;20094;-76
2021/11/17 18:52:03;;;;;;;1.30;1.20;;;4.70;99.90;;;;;;5059324;28;20082;-78
2021/11/17 18:54:29;;;;;;;1.35;1.20;;;4.70;99.90;;;;;;5060385;28;20063;-77
2021/11/17 18:56:56;;;;;;;1.73;1.48;;;4.70;99.90;;;;;;5060237;28;20029;-76
2021/11/17 18:59:23;;;;;;;1.60;1.50;;;4.70;99.90;;;;;;5026315;28;20033;-78
2021/11/17 19:02:00;;;;;;;1.67;1.58;;;4.70;99.90;;;;;;5062966;28;20090;-78
2021/11/17 19:04:26;;;;;;;1.40;1.30;;;4.80;99.90;;;;;;5064519;28;20107;-76
2021/11/17 19:06:53;;;;;;;2.03;1.50;;;4.80;99.90;;;;;;5066548;28;20063;-76
2021/11/17 19:09:21;;;;;;;1.83;1.73;;;4.70;99.90;;;;;;5065644;28;20067;-79
2021/11/17 19:11:47;;;;;;;1.58;1.45;;;4.70;99.90;;;;;;5065332;28;20037;-76
2021/11/17 19:14:12;;;;;;;2.03;1.40;;;4.70;99.90;;;;;;5065421;28;20035;-77
2021/11/17 19:16:38;;;;;;;1.50;1.40;;;4.70;99.90;;;;;;5063244;28;20025;-80
2021/11/17 19:19:09;;;;;;;1.27;1.17;;;4.70;99.90;;;;;;5057316;28;20036;-78
2021/11/17 19:21:35;;;;;;;1.80;1.48;;;4.60;99.90;;;;;;5045307;28;20041;-77
2021/11/17 19:24:02;;;;;;;1.73;1.52;;;4.60;99.90;;;;;;5062688;28;21853;-79
2021/11/17 19:26:28;;;;;;;1.52;1.20;;;4.60;99.90;;;;;;5060143;28;20025;-76
2021/11/17 19:28:55;;;;;;;1.65;1.55;;;4.60;99.90;;;;;;5064192;28;20025;-77
2021/11/17 19:31:21;;;;;;;1.65;1.55;;;4.60;99.90;;;;;;5061191;28;20052;-77
2021/11/17 19:33:48;;;;;;;1.95;1.77;;;4.60;99.90;;;;;;5066811;28;20617;-77
2021/11/17 19:36:27;;;;;;;1.50;1.40;;;4.60;99.90;;;;;;5068929;28;20086;-79
2021/11/17 19:38:55;;;;;;;1.40;1.30;;;4.60;99.90;;;;;;5063718;28;20620;-76
2021/11/17 19:41:34;;;;;;;1.48;1.38;;;4.60;99.90;;;;;;5066170;28;20063;-78
2021/11/17 19:44:03;;;;;;;1.73;1.63;;;4.60;99.90;;;;;;5068623;28;20039;-78
2021/11/17 19:46:30;;;;;;;1.63;1.52;;;4.60;99.90;;;;;;5066992;28;20064;-77
2021/11/17 19:48:58;;;;;;;1.65;1.48;;;4.60;99.90;;;;;;5067928;28;20060;-76
2021/11/17 19:51:29;;;;;;;1.60;1.50;;;4.60;99.90;;;;;;5068135;28;20536;-78
2021/11/17 19:53:56;;;;;;;1.40;1.27;;;4.60;99.90;;;;;;5061832;28;20032;-81
2021/11/17 19:56:22;;;;;;;1.92;1.75;;;4.60;99.90;;;;;;5068010;28;20466;-77
2021/11/17 19:58:49;;;;;;;1.50;1.40;;;4.60;99.90;;;;;;5068781;28;20013;-80
2021/11/17 20:01:16;;;;;;;1.90;1.80;;;4.60;99.90;;;;;;5070526;28;20050;-78
2021/11/17 20:03:43;;;;;;;2.13;1.92;;;4.60;99.90;;;;;;5046352;28;20051;-79
2021/11/17 20:06:11;;;;;;;1.90;1.70;;;4.60;99.90;;;;;;5069478;28;20654;-79
2021/11/17 20:08:36;;;;;;;2.25;2.05;;;4.60;99.90;;;;;;5065927;28;20952;-80
2021/11/17 20:11:04;;;;;;;2.33;1.90;;;4.60;99.90;;;;;;5074972;28;20065;-76
2021/11/17 20:13:30;;;;;;;2.42;2.17;;;4.60;99.90;;;;;;5070397;28;20033;-79
2021/11/17 20:15:55;;;;;;;3.05;2.40;;;4.60;99.90;;;;;;5069265;28;20599;-77
2021/11/17 20:18:21;;;;;;;2.15;1.95;;;4.60;99.90;;;;;;5048215;28;20498;-78
2021/11/17 20:20:49;;;;;;;2.65;2.33;;;4.60;99.90;;;;;;5062506;28;20021;-80
2021/11/17 20:23:16;;;;;;;2.60;2.40;;;4.60;99.90;;;;;;5067524;28;20049;-78
2021/11/17 20:25:42;;;;;;;2.30;2.10;;;4.60;99.90;;;;;;5067791;28;20475;-80
2021/11/17 20:28:08;;;;;;;2.28;2.08;;;4.60;99.90;;;;;;5069663;28;20475;-77
2021/11/17 20:30:35;;;;;;;2.65;2.25;;;4.60;99.90;;;;;;5065073;28;20032;-76
2021/11/17 20:33:03;;;;;;;2.30;2.00;;;4.60;99.90;;;;;;5068871;28;20037;-79
2021/11/17 20:35:29;;;;;;;2.55;2.35;;;4.60;99.90;;;;;;5066079;28;20024;-76
2021/11/17 20:37:57;;;;;;;1.88;1.77;;;4.60;99.90;;;;;;5064752;28;20028;-76
2021/11/17 20:40:24;;;;;;;2.20;2.00;;;4.60;99.90;;;;;;5066060;28;20040;-79
2021/11/17 20:42:51;;;;;;;2.20;1.90;;;4.60;99.90;;;;;;5066366;28;20586;-77
2021/11/17 20:45:21;;;;;;;2.40;1.98;;;4.60;99.90;;;;;;5061069;28;20041;-77
2021/11/17 20:47:50;;;;;;;2.42;1.95;;;4.60;99.90;;;;;;5057776;28;20466;-81
2021/11/17 20:50:16;;;;;;;2.53;2.10;;;4.60;99.90;;;;;;5047159;28;20086;-79
2021/11/17 20:52:42;;;;;;;2.25;2.00;;;4.60;99.90;;;;;;5066048;28;20028;-79
2021/11/17 20:55:11;;;;;;;2.40;2.20;;;4.60;99.90;;;;;;5068026;28;20039;-77
2021/11/17 20:57:36;;;;;;;2.42;2.22;;;4.60;99.90;;;;;;5063145;28;20044;-78
2021/11/17 21:00:06;;;;;;;2.00;1.80;;;4.60;99.90;;;;;;5063220;28;20386;-80
2021/11/17 21:02:32;;;;;;;2.50;2.30;;;4.60;99.90;;;;;;5062297;28;20032;-82
2021/11/17 21:04:58;;;;;;;2.60;2.40;;;4.60;99.90;;;;;;5067261;28;20062;-77
2021/11/17 21:07:23;;;;;;;2.22;2.00;;;4.60;99.90;;;;;;5073297;28;20032;-77
2021/11/17 21:09:49;;;;;;;2.40;2.20;;;4.60;99.90;;;;;;5070417;28;20035;-77
2021/11/17 21:12:15;;;;;;;2.40;2.13;;;4.60;99.90;;;;;;5064188;28;20032;-78
2021/11/17 21:14:41;;;;;;;2.10;1.90;;;4.60;99.90;;;;;;5069222;28;20406;-80
2021/11/17 21:17:10;;;;;;;2.30;2.10;;;4.60;99.90;;;;;;5068954;28;20135;-79
2021/11/17 21:19:36;;;;;;;2.25;2.05;;;4.50;99.90;;;;;;5062432;28;20024;-77
2021/11/17 21:22:06;;;;;;;2.22;2.00;;;4.60;99.90;;;;;;5064420;28;20052;-81
2021/11/17 21:24:37;;;;;;;3.05;2.08;;;4.50;99.90;;;;;;5065704;28;20024;-76
2021/11/17 21:27:04;;;;;;;3.63;2.88;;;4.60;99.90;;;;;;5063223;28;20085;-77
2021/11/17 21:29:32;;;;;;;2.25;2.05;;;4.50;99.90;;;;;;5063337;28;20029;-77
2021/11/17 21:31:58;;;;;;;2.35;2.15;;;4.50;99.90;;;;;;5067069;28;20041;-81
2021/11/17 21:34:24;;;;;;;2.60;2.30;;;4.50;99.90;;;;;;5065902;28;20127;-76
2021/11/17 21:36:50;;;;;;;2.63;2.28;;;4.50;99.90;;;;;;5067420;28;20741;-78
2021/11/17 21:39:16;;;;;;;2.10;1.90;;;4.50;99.90;;;;;;5066297;28;20040;-77
2021/11/17 21:41:42;;;;;;;1.98;1.77;;;4.50;99.90;;;;;;5067398;28;20025;-78
2021/11/17 21:44:08;;;;;;;2.47;2.15;;;4.60;99.90;;;;;;5044801;28;20446;-79
2021/11/17 21:46:34;;;;;;;2.28;2.10;;;4.60;99.90;;;;;;5061312;28;20037;-77
2021/11/17 21:49:01;;;;;;;2.90;2.30;;;4.50;99.90;;;;;;5062359;28;20059;-79
2021/11/17 21:51:28;;;;;;;2.80;2.50;;;4.60;99.90;;;;;;5075948;28;20688;-82
2021/11/17 21:53:53;;;;;;;2.70;2.38;;;4.60;99.90;;;;;;5069093;28;20431;-79
2021/11/17 21:56:19;;;;;;;2.95;2.45;;;4.60;99.90;;;;;;5065239;28;20024;-76
2021/11/17 21:58:45;;;;;;;2.92;2.63;;;4.60;99.90;;;;;;5065376;28;20032;-79
2021/11/17 22:01:13;;;;;;;3.22;2.67;;;4.60;99.90;;;;;;5063633;28;20101;-76
2021/11/17 22:03:39;;;;;;;3.00;2.30;;;4.50;99.90;;;;;;5072016;28;20113;-77
2021/11/17 22:06:05;;;;;;;2.90;2.60;;;4.50;99.90;;;;;;5065163;28;20046;-77
2021/11/17 22:08:32;;;;;;;3.10;2.60;;;4.50;99.90;;;;;;5063666;28;20098;-77
2021/11/17 22:11:00;;;;;;;2.97;2.55;;;4.50;99.90;;;;;;5070072;28;20041;-76
2021/11/17 22:13:28;;;;;;;3.17;2.75;;;4.50;99.90;;;;;;5073670;28;20024;-79
2021/11/17 22:15:54;;;;;;;2.70;2.50;;;4.50;99.90;;;;;;5064111;28;20013;-77
2021/11/17 22:18:21;;;;;;;3.53;2.83;;;4.50;99.90;;;;;;5065234;28;20047;-78
2021/11/17 22:20:50;;;;;;;3.15;2.83;;;4.50;99.90;;;;;;5070494;28;20052;-79
2021/11/17 22:23:23;;;;;;;2.65;2.22;;;4.60;99.90;;;;;;5069882;28;20592;-78
2021/11/17 22:25:59;;;;;;;3.22;2.75;;;4.60;99.90;;;;;;5057599;28;20131;-77
2021/11/17 22:28:27;;;;;;;3.22;2.92;;;4.60;99.90;;;;;;5070749;28;20037;-78
2021/11/17 22:30:54;;;;;;;3.35;3.03;;;4.60;99.90;;;;;;5069324;28;20032;-81
2021/11/17 22:33:22;;;;;;;2.70;2.33;;;4.60;99.90;;;;;;5069026;28;20032;-78
2021/11/17 22:35:48;;;;;;;3.30;2.63;;;4.60;99.90;;;;;;5068882;28;20032;-78
2021/11/17 22:38:15;;;;;;;2.78;2.40;;;4.60;99.90;;;;;;5070348;28;20077;-78
2021/11/17 22:40:46;;;;;;;3.60;2.80;;;4.60;99.90;;;;;;5067909;28;20512;-78
2021/11/17 22:43:13;;;;;;;4.53;2.92;;;4.60;99.90;;;;;;5067784;28;20036;-80
2021/11/17 22:45:39;;;;;;;3.65;2.58;;;4.60;99.90;;;;;;5063391;28;20041;-79
2021/11/17 22:48:06;;;;;;;3.83;2.97;;;4.60;99.90;;;;;;5070259;28;20039;-78
2021/11/17 22:50:32;;;;;;;2.72;2.53;;;4.60;99.90;;;;;;5076393;28;20114;-78
2021/11/17 22:52:59;;;;;;;3.92;3.10;;;4.60;99.90;;;;;;5072350;28;20029;-77
2021/11/17 22:55:27;;;;;;;4.20;3.00;;;4.70;99.90;;;;;;5069080;28;20033;-78
2021/11/17 22:57:54;;;;;;;2.70;2.50;;;4.60;99.90;;;;;;5054805;28;20071;-77
2021/11/17 23:00:34;;;;;;;3.08;2.78;;;4.60;99.90;;;;;;5065325;28;20028;-80
2021/11/17 23:03:01;;;;;;;3.67;2.80;;;4.60;99.90;;;;;;5068003;28;20073;-79
2021/11/17 23:05:28;;;;;;;2.83;2.55;;;4.60;99.90;;;;;;5067889;28;20048;-78
2021/11/17 23:07:53;;;;;;;3.40;2.70;;;4.60;99.90;;;;;;5051197;28;20086;-77
2021/11/17 23:10:23;;;;;;;3.97;3.10;;;4.60;99.90;;;;;;5067339;28;20039;-80
2021/11/17 23:12:49;;;;;;;4.53;3.00;;;4.60;99.90;;;;;;5067891;28;20043;-79
2021/11/17 23:15:37;;;;;;;3.75;3.08;;;4.70;99.90;;;;;;5069442;28;20060;-79
2021/11/17 23:18:04;;;;;;;3.78;2.95;;;4.60;99.90;;;;;;5061793;28;20044;-79
2021/11/17 23:20:32;;;;;;;3.83;3.28;;;4.70;99.90;;;;;;5052592;28;20085;-78
2021/11/17 23:23:02;;;;;;;4.53;3.28;;;4.60;99.90;;;;;;5069049;28;20134;-78
2021/11/17 23:25:31;;;;;;;3.45;3.15;;;4.70;99.90;;;;;;5066972;28;20068;-78
2021/11/17 23:27:58;;;;;;;3.63;3.10;;;4.70;99.90;;;;;;5069162;28;20394;-77
2021/11/17 23:30:28;;;;;;;3.08;2.78;;;4.70;99.90;;;;;;5067428;28;21120;-78
2021/11/17 23:33:02;;;;;;;3.50;3.20;;;4.70;99.90;;;;;;5054289;28;20024;-78
2021/11/17 23:35:35;;;;;;;3.50;2.90;;;4.60;99.90;;;;;;5067658;28;20028;-77
2021/11/17 23:38:02;;;;;;;3.75;2.75;;;4.70;99.90;;;;;;5070182;28;20089;-79
2021/11/17 23:40:29;;;;;;;3.50;3.00;;;4.70;99.90;;;;;;5051519;28;20059;-79
2021/11/17 23:42:55;;;;;;;3.53;2.90;;;4.60;99.90;;;;;;5068389;28;20036;-77
2021/11/17 23:45:24;;;;;;;3.40;3.10;;;4.60;99.90;;;;;;5069005;28;20033;-78
2021/11/17 23:47:50;;;;;;;3.70;2.80;;;4.60;99.90;;;;;;5069733;28;20044;-79
2021/11/17 23:50:20;;;;;;;3.67;2.97;;;4.60;99.90;;;;;;5074456;28;20097;-80
2021/11/17 23:52:46;;;;;;;3.00;2.72;;;4.60;99.90;;;;;;5070007;28;20390;-78
2021/11/17 23:55:14;;;;;;;3.97;3.33;;;4.60;99.90;;;;;;5071708;28;20032;-78
2021/11/17 23:57:41;;;;;;;4.53;3.30;;;4.60;99.90;;;;;;5052463;28;20048;-80
